createdAt,value
2018-11-02T00:00:57.495Z,99.33
2018-11-02T00:03:26.959Z,105.07
2018-11-02T00:05:56.205Z,110.37
2018-11-02T00:08:25.420Z,98.60
2018-11-02T00:10:54.781Z,92.03
2018-11-02T00:13:24.102Z,97.57
2018-11-02T00:15:53.306Z,92.30
2018-11-02T00:18:22.578Z,88.77
2018-11-02T00:20:51.696Z,81.57
2018-11-02T00:23:20.977Z,90.20
2018-11-02T00:25:50.488Z,87.43
2018-11-02T00:28:19.617Z,90.83
2018-11-02T00:30:48.786Z,87.33
2018-11-02T00:33:18.007Z,81.30
2018-11-02T00:35:47.083Z,76.80
2018-11-02T00:38:16.186Z,65.10
2018-11-02T00:40:45.426Z,67.13
2018-11-02T00:43:14.767Z,63.67
2018-11-02T00:45:43.982Z,64.23
2018-11-02T00:48:12.958Z,56.30
2018-11-02T00:50:41.863Z,58.13
2018-11-02T00:53:11.068Z,60.23
2018-11-02T00:55:40.377Z,55.57
2018-11-02T00:58:09.319Z,58.80
2018-11-02T01:00:38.435Z,55.07
2018-11-02T01:03:08.977Z,57.77
2018-11-02T01:05:38.547Z,55.70
2018-11-02T01:08:08.320Z,61.33
2018-11-02T01:10:37.499Z,56.57
2018-11-02T01:13:06.714Z,61.77
2018-11-02T01:15:36.110Z,54.53
2018-11-02T01:18:05.612Z,52.97
2018-11-02T01:20:34.556Z,53.17
2018-11-02T01:23:04.019Z,59.07
2018-11-02T01:25:33.162Z,62.60
2018-11-02T01:28:02.090Z,57.67
2018-11-02T01:30:31.393Z,59.70
2018-11-02T01:33:00.572Z,56.47
2018-11-02T01:35:29.983Z,59.03
2018-11-02T01:37:59.094Z,55.33
2018-11-02T01:40:28.020Z,57.23
2018-11-02T01:42:57.286Z,56.90
2018-11-02T01:45:26.637Z,57.07
2018-11-02T01:47:55.554Z,56.43
2018-11-02T01:50:24.491Z,54.77
2018-11-02T01:52:53.581Z,53.57
2018-11-02T01:55:22.538Z,64.43
2018-11-02T01:57:51.515Z,56.87
2018-11-02T02:00:20.715Z,55.83
2018-11-02T02:02:49.676Z,52.63
2018-11-02T02:05:18.930Z,52.70
2018-11-02T02:07:48.286Z,59.57
2018-11-02T02:10:17.653Z,49.93
2018-11-02T02:12:47.035Z,49.43
2018-11-02T02:15:16.614Z,47.77
2018-11-02T02:17:45.596Z,50.37
2018-11-02T02:20:14.592Z,49.90
2018-11-02T02:22:43.549Z,51.77
2018-11-02T02:25:12.529Z,48.30
2018-11-02T02:27:41.434Z,51.47
2018-11-02T02:30:13.119Z,47.63
2018-11-02T02:32:42.146Z,48.60
2018-11-02T02:35:11.762Z,45.27
2018-11-02T02:37:41.410Z,45.43
2018-11-02T02:40:12.580Z,47.43
2018-11-02T02:42:42.329Z,49.20
2018-11-02T02:45:12.416Z,49.97
2018-11-02T02:47:41.752Z,49.60
2018-11-02T02:50:13.083Z,47.70
2018-11-02T02:52:43.079Z,50.33
2018-11-02T02:55:12.187Z,49.00
2018-11-02T02:57:41.489Z,49.73
2018-11-02T03:00:12.594Z,50.00
2018-11-02T03:02:41.911Z,49.17
2018-11-02T03:05:11.320Z,54.23
2018-11-02T03:07:41.131Z,49.40
2018-11-02T03:10:10.754Z,48.97
2018-11-02T03:12:39.940Z,48.87
2018-11-02T03:15:09.248Z,49.77
2018-11-02T03:17:38.854Z,47.60
2018-11-02T03:20:09.560Z,49.83
2018-11-02T03:22:39.244Z,56.07
2018-11-02T03:25:10.006Z,51.00
2018-11-02T03:27:39.559Z,50.40
2018-11-02T03:30:10.177Z,49.07
2018-11-02T03:32:39.162Z,46.40
2018-11-02T03:35:08.613Z,46.47
2018-11-02T03:37:37.556Z,46.43
2018-11-02T03:40:07.535Z,43.13
2018-11-02T03:42:36.645Z,48.87
2018-11-02T03:45:05.783Z,49.60
2018-11-02T03:47:34.718Z,51.53
2018-11-02T03:50:03.962Z,48.53
2018-11-02T03:52:32.924Z,50.03
2018-11-02T03:55:02.098Z,48.53
2018-11-02T03:57:31.395Z,52.37
2018-11-02T04:00:00.674Z,51.87
2018-11-02T04:02:29.858Z,52.93
2018-11-02T04:04:59.212Z,50.57
2018-11-02T04:07:28.865Z,55.17
2018-11-02T04:09:57.787Z,50.40
2018-11-02T04:12:27.615Z,47.00
2018-11-02T04:14:57.057Z,49.60
2018-11-02T04:17:26.390Z,52.40
2018-11-02T04:19:55.506Z,48.87
2018-11-02T04:22:24.421Z,47.30
2018-11-02T04:24:53.878Z,46.30
2018-11-02T04:27:23.993Z,46.10
2018-11-02T04:29:53.407Z,49.73
2018-11-02T04:32:22.709Z,48.90
2018-11-02T04:34:52.333Z,50.30
2018-11-02T04:37:21.718Z,54.43
2018-11-02T04:39:50.896Z,55.60
2018-11-02T04:42:20.577Z,52.83
2018-11-02T04:44:49.923Z,55.50
2018-11-02T04:47:19.425Z,64.90
2018-11-02T04:49:49.108Z,63.73
2018-11-02T04:52:18.403Z,59.17
2018-11-02T04:54:47.699Z,58.50
2018-11-02T04:57:17.425Z,52.03
2018-11-02T04:59:46.716Z,52.00
2018-11-02T05:02:15.903Z,57.50
2018-11-02T05:04:45.473Z,54.67
2018-11-02T05:07:14.817Z,49.37
2018-11-02T05:09:44.468Z,56.63
2018-11-02T05:12:14.262Z,66.27
2018-11-02T05:14:43.651Z,53.90
2018-11-02T05:17:12.930Z,52.27
2018-11-02T05:19:42.202Z,60.17
2018-11-02T05:22:11.553Z,56.23
2018-11-02T05:24:40.853Z,56.57
2018-11-02T05:27:10.402Z,59.97
2018-11-02T05:29:39.654Z,62.33
2018-11-02T05:32:08.916Z,51.93
2018-11-02T05:34:38.600Z,75.73
2018-11-02T05:37:07.876Z,55.60
2018-11-02T05:39:37.182Z,60.80
2018-11-02T05:42:07.119Z,97.37
2018-11-02T05:44:36.303Z,50.57
2018-11-02T05:47:05.806Z,59.43
2018-11-02T05:49:35.361Z,54.40
2018-11-02T05:52:04.476Z,65.50
2018-11-02T05:54:33.787Z,94.50
2018-11-02T05:57:03.443Z,65.67
2018-11-02T05:59:32.588Z,61.87
2018-11-02T06:02:01.797Z,55.27
2018-11-02T06:04:31.224Z,57.23
2018-11-02T06:07:00.150Z,51.33
2018-11-02T06:09:29.467Z,53.93
2018-11-02T06:11:58.857Z,57.00
2018-11-02T06:14:27.794Z,52.93
2018-11-02T06:16:57.235Z,77.03
2018-11-02T06:19:26.860Z,54.17
2018-11-02T06:21:56.098Z,69.03
2018-11-02T06:24:25.565Z,55.83
2018-11-02T06:26:55.198Z,55.93
2018-11-02T06:29:24.447Z,66.37
2018-11-02T06:31:53.700Z,48.23
2018-11-02T06:34:23.141Z,66.67
2018-11-02T06:36:53.168Z,55.67
2018-11-02T06:39:22.398Z,49.83
2018-11-02T06:41:51.766Z,52.70
2018-11-02T06:44:21.014Z,54.27
2018-11-02T06:46:50.223Z,53.90
2018-11-02T06:49:19.540Z,76.20
2018-11-02T06:51:48.631Z,56.27
2018-11-02T06:54:18.005Z,65.83
2018-11-02T06:56:47.479Z,59.07
2018-11-02T06:59:16.854Z,64.17
2018-11-02T07:01:46.611Z,85.83
2018-11-02T07:04:16.579Z,74.47
2018-11-02T07:06:45.870Z,78.33
2018-11-02T07:09:15.475Z,84.33
2018-11-02T07:11:44.435Z,88.60
2018-11-02T07:14:13.364Z,85.37
2018-11-02T07:16:42.460Z,88.57
2018-11-02T07:19:11.384Z,92.40
2018-11-02T07:21:40.704Z,77.33
2018-11-02T07:24:10.170Z,78.43
2018-11-02T07:26:39.438Z,81.80
2018-11-02T07:29:09.195Z,84.87
2018-11-02T07:31:38.760Z,80.60
2018-11-02T07:34:08.227Z,89.07
2018-11-02T07:36:37.632Z,72.80
2018-11-02T07:39:09.494Z,68.37
2018-11-02T07:41:38.844Z,68.60
2018-11-02T07:44:08.448Z,70.13
2018-11-02T07:46:38.238Z,80.20
2018-11-02T07:49:07.631Z,73.40
2018-11-02T07:51:36.920Z,65.73
2018-11-02T07:54:06.519Z,69.70
2018-11-02T07:56:35.618Z,72.07
2018-11-02T07:59:04.774Z,70.60
2018-11-02T08:01:34.618Z,66.07
2018-11-02T08:04:03.986Z,110.17
2018-11-02T08:06:33.367Z,57.97
2018-11-02T08:09:02.682Z,61.40
2018-11-02T08:11:31.913Z,57.93
2018-11-02T08:14:01.456Z,61.73
2018-11-02T08:16:30.857Z,80.53
2018-11-02T08:19:00.150Z,60.67
2018-11-02T08:21:29.453Z,85.83
2018-11-02T08:23:59.151Z,59.17
2018-11-02T08:26:28.673Z,63.07
2018-11-02T08:28:57.889Z,67.70
2018-11-02T08:31:27.545Z,58.67
2018-11-02T08:33:56.863Z,55.20
2018-11-02T08:36:26.080Z,53.57
2018-11-02T08:38:55.669Z,49.60
2018-11-02T08:41:24.762Z,54.87
2018-11-02T08:43:53.962Z,63.83
2018-11-02T08:46:23.325Z,225.30
2018-11-02T08:48:52.870Z,52.77
2018-11-02T08:51:22.068Z,58.43
2018-11-02T08:53:51.570Z,59.67
2018-11-02T08:56:20.813Z,68.80
2018-11-02T08:58:50.209Z,65.23
2018-11-02T09:01:19.575Z,53.33
2018-11-02T09:03:48.977Z,54.30
2018-11-02T09:06:18.158Z,58.57
2018-11-02T09:08:47.607Z,60.83
2018-11-02T09:11:16.901Z,56.57
2018-11-02T09:13:46.087Z,58.53
2018-11-02T09:16:15.302Z,56.17
2018-11-02T09:18:44.589Z,63.80
2018-11-02T09:21:13.668Z,58.17
2018-11-02T09:23:44.054Z,71.67
2018-11-02T09:26:13.179Z,65.30
2018-11-02T09:28:42.387Z,54.37
2018-11-02T09:31:11.557Z,53.67
2018-11-02T09:33:40.530Z,45.30
2018-11-02T09:36:09.768Z,51.03
2018-11-02T09:38:39.158Z,48.73
2018-11-02T09:41:08.390Z,43.60
2018-11-02T09:43:37.583Z,50.00
2018-11-02T09:46:07.200Z,46.23
2018-11-02T09:48:36.506Z,52.10
2018-11-02T09:51:05.777Z,45.67
2018-11-02T09:53:35.111Z,46.53
2018-11-02T09:56:04.391Z,45.70
2018-11-02T09:58:33.691Z,46.43
2018-11-02T10:01:03.166Z,50.93
2018-11-02T10:03:32.272Z,43.83
2018-11-02T10:06:01.379Z,53.13
2018-11-02T10:08:30.923Z,47.20
2018-11-02T10:11:00.269Z,43.47
2018-11-02T10:13:29.728Z,42.90
2018-11-02T10:15:59.239Z,46.00
2018-11-02T10:18:28.475Z,44.00
2018-11-02T10:20:57.802Z,46.83
2018-11-02T10:23:27.606Z,46.87
2018-11-02T10:25:56.807Z,58.83
2018-11-02T10:28:25.998Z,43.57
2018-11-02T10:30:55.350Z,48.33
2018-11-02T10:33:24.623Z,55.47
2018-11-02T10:35:53.926Z,46.00
2018-11-02T10:38:23.719Z,45.50
2018-11-02T10:40:54.905Z,43.37
2018-11-02T10:43:25.245Z,41.83
2018-11-02T10:45:57.968Z,44.10
2018-11-02T10:48:29.028Z,43.37
2018-11-02T10:50:58.331Z,45.23
2018-11-02T10:53:27.803Z,48.03
2018-11-02T10:55:57.303Z,54.37
2018-11-02T10:58:26.533Z,45.57
2018-11-02T11:01:00.914Z,48.57
2018-11-02T11:03:30.427Z,54.57
2018-11-02T11:05:59.695Z,45.73
2018-11-02T11:08:29.183Z,49.43
2018-11-02T11:10:58.355Z,42.87
2018-11-02T11:13:27.940Z,41.80
2018-11-02T11:15:57.317Z,48.70
2018-11-02T11:18:26.552Z,49.03
2018-11-02T11:20:56.046Z,51.47
2018-11-02T11:23:25.368Z,47.63
2018-11-02T11:25:54.845Z,100.43
2018-11-02T11:28:24.143Z,67.70
2018-11-02T11:30:53.703Z,52.53
2018-11-02T11:33:22.972Z,55.77
2018-11-02T11:35:52.164Z,52.33
2018-11-02T11:38:21.972Z,56.20
2018-11-02T11:40:51.253Z,55.13
2018-11-02T11:43:20.595Z,53.93
2018-11-02T11:45:49.956Z,51.43
2018-11-02T11:48:19.079Z,77.73
2018-11-02T11:50:48.566Z,65.93
2018-11-02T11:53:18.070Z,51.97
2018-11-02T11:55:47.478Z,64.47
2018-11-02T11:58:16.683Z,56.03
2018-11-02T12:00:46.068Z,49.63
2018-11-02T12:03:15.398Z,54.17
2018-11-02T12:05:44.758Z,49.03
2018-11-02T12:08:14.100Z,51.83
2018-11-02T12:10:43.417Z,52.70
2018-11-02T12:13:12.686Z,52.43
2018-11-02T12:15:41.956Z,52.70
2018-11-02T12:18:11.374Z,72.37
2018-11-02T12:20:40.718Z,69.07
2018-11-02T12:23:10.155Z,51.83
2018-11-02T12:25:39.295Z,52.23
2018-11-02T12:28:08.416Z,56.23
2018-11-02T12:30:38.330Z,57.97
2018-11-02T12:33:08.034Z,63.33
2018-11-02T12:35:37.231Z,68.67
2018-11-02T12:38:06.767Z,64.53
2018-11-02T12:40:36.410Z,61.33
2018-11-02T12:43:06.274Z,55.70
2018-11-02T12:45:35.926Z,56.23
2018-11-02T12:48:05.229Z,55.10
2018-11-02T12:50:34.601Z,57.10
2018-11-02T12:53:04.220Z,52.63
2018-11-02T12:55:33.530Z,56.23
2018-11-02T12:58:02.678Z,60.13
2018-11-02T13:00:31.943Z,60.80
2018-11-02T13:03:01.354Z,66.60
2018-11-02T13:05:30.863Z,64.87
2018-11-02T13:08:00.432Z,60.93
2018-11-02T13:10:29.533Z,60.53
2018-11-02T13:12:58.785Z,54.20
2018-11-02T13:15:28.436Z,65.60
2018-11-02T13:17:57.760Z,80.93
2018-11-02T13:20:26.943Z,63.80
2018-11-02T13:22:56.495Z,74.43
2018-11-02T13:25:25.816Z,63.97
2018-11-02T13:27:55.163Z,70.63
2018-11-02T13:30:24.664Z,67.47
2018-11-02T13:32:53.968Z,62.63
2018-11-02T13:35:23.189Z,69.13
2018-11-02T13:37:52.496Z,77.63
2018-11-02T13:40:21.674Z,68.73
2018-11-02T13:42:50.783Z,69.93
2018-11-02T13:45:20.600Z,70.53
2018-11-02T13:47:49.919Z,59.87
2018-11-02T13:50:19.433Z,64.73
2018-11-02T13:52:48.719Z,67.27
2018-11-02T13:55:18.079Z,61.97
2018-11-02T13:57:47.400Z,71.10
2018-11-02T14:00:18.038Z,66.23
2018-11-02T14:02:47.403Z,67.73
2018-11-02T14:05:17.656Z,68.37
2018-11-02T14:07:47.026Z,71.73
2018-11-02T14:10:16.282Z,77.43
2018-11-02T14:12:45.812Z,70.57
2018-11-02T14:15:17.314Z,71.27
2018-11-02T14:17:46.904Z,71.23
2018-11-02T14:20:16.370Z,168.40
2018-11-02T14:22:45.912Z,99.23
2018-11-02T14:25:16.478Z,73.37
2018-11-02T14:27:46.044Z,94.93
2018-11-02T14:30:16.605Z,67.80
2018-11-02T14:32:46.588Z,106.63
2018-11-02T14:35:15.890Z,184.70
2018-11-02T14:37:45.457Z,116.97
2018-11-02T14:40:14.725Z,106.33
2018-11-02T14:42:44.086Z,95.77
2018-11-02T14:45:15.730Z,104.17
2018-11-02T14:47:46.057Z,118.97
2018-11-02T14:50:15.706Z,83.03
2018-11-02T14:52:45.005Z,92.37
2018-11-02T14:55:14.287Z,98.73
2018-11-02T14:57:44.099Z,89.60
2018-11-02T15:00:13.320Z,115.60
2018-11-02T15:02:42.877Z,96.97
2018-11-02T15:05:13.464Z,89.30
2018-11-02T15:07:43.530Z,103.40
2018-11-02T15:10:13.191Z,100.30
2018-11-02T15:12:42.849Z,79.47
2018-11-02T15:15:12.097Z,74.87
2018-11-02T15:17:41.553Z,84.00
2018-11-02T15:20:12.683Z,80.50
2018-11-02T15:22:42.361Z,90.07
2018-11-02T15:25:11.636Z,106.73
2018-11-02T15:27:40.818Z,108.27
2018-11-02T15:30:13.223Z,111.07
2018-11-02T15:32:43.795Z,96.20
2018-11-02T15:35:13.284Z,113.40
2018-11-02T15:37:42.939Z,106.67
2018-11-02T15:40:13.414Z,102.50
2018-11-02T15:42:43.168Z,108.87
2018-11-02T15:45:13.721Z,103.73
2018-11-02T15:47:43.411Z,86.33
2018-11-02T15:50:12.626Z,89.87
2018-11-02T15:52:42.064Z,99.67
2018-11-02T15:55:12.122Z,93.50
2018-11-02T15:57:41.436Z,104.50
2018-11-02T16:00:15.716Z,101.13
2018-11-02T16:02:46.262Z,93.33
2018-11-02T16:05:16.228Z,101.40
2018-11-02T16:07:45.598Z,101.00
2018-11-02T16:10:14.896Z,95.53
2018-11-02T16:12:44.824Z,116.27
2018-11-02T16:15:14.127Z,103.93
2018-11-02T16:17:43.455Z,88.00
2018-11-02T16:20:15.155Z,95.40
2018-11-02T16:22:44.958Z,105.47
2018-11-02T16:25:14.671Z,109.73
2018-11-02T16:27:43.939Z,104.13
2018-11-02T16:30:13.316Z,94.50
2018-11-02T16:32:44.031Z,99.13
2018-11-02T16:35:13.405Z,113.63
2018-11-02T16:37:42.518Z,157.33
2018-11-02T16:40:14.039Z,123.47
2018-11-02T16:42:43.868Z,122.20
2018-11-02T16:45:14.153Z,135.10
2018-11-02T16:47:43.940Z,118.57
2018-11-02T16:50:14.660Z,125.00
2018-11-02T16:52:44.351Z,134.23
2018-11-02T16:55:13.661Z,123.77
2018-11-02T16:57:43.267Z,148.90
2018-11-02T17:00:15.207Z,171.37
2018-11-02T17:02:45.982Z,164.80
2018-11-02T17:05:15.535Z,169.13
2018-11-02T17:07:44.849Z,181.73
2018-11-02T17:10:15.128Z,206.70
2018-11-02T17:12:44.819Z,205.37
2018-11-02T17:15:14.408Z,199.83
2018-11-02T17:17:43.631Z,170.63
2018-11-02T17:20:15.092Z,190.97
2018-11-02T17:22:44.563Z,182.70
2018-11-02T17:25:14.160Z,186.67
2018-11-02T17:27:43.582Z,209.57
2018-11-02T17:30:14.382Z,212.43
2018-11-02T17:32:43.510Z,219.60
2018-11-02T17:35:12.991Z,194.73
2018-11-02T17:37:42.311Z,200.60
2018-11-02T17:40:12.940Z,181.37
2018-11-02T17:42:42.887Z,206.47
2018-11-02T17:45:12.163Z,184.63
2018-11-02T17:47:42.255Z,188.90
2018-11-02T17:50:12.988Z,193.80
2018-11-02T17:52:42.518Z,187.43
2018-11-02T17:55:11.757Z,183.07
2018-11-02T17:57:40.972Z,186.07
2018-11-02T18:00:12.027Z,201.50
2018-11-02T18:02:41.590Z,221.50
2018-11-02T18:05:11.951Z,236.40
2018-11-02T18:07:41.402Z,226.33
2018-11-02T18:10:12.833Z,234.30
2018-11-02T18:12:42.238Z,196.50
2018-11-02T18:15:12.326Z,189.57
2018-11-02T18:17:41.650Z,187.43
2018-11-02T18:20:14.039Z,162.23
2018-11-02T18:22:43.335Z,140.73
2018-11-02T18:25:12.778Z,131.00
2018-11-02T18:27:42.636Z,132.77
2018-11-02T18:30:12.669Z,133.57
2018-11-02T18:32:42.251Z,146.27
2018-11-02T18:35:11.900Z,133.10
2018-11-02T18:37:41.279Z,135.13
2018-11-02T18:40:12.409Z,126.77
2018-11-02T18:42:42.158Z,128.33
2018-11-02T18:45:13.017Z,124.60
2018-11-02T18:47:45.394Z,125.53
2018-11-02T18:50:17.011Z,126.63
2018-11-02T18:52:46.886Z,123.97
2018-11-02T18:55:16.394Z,141.27
2018-11-02T18:57:45.786Z,126.20
2018-11-02T19:00:15.337Z,125.20
2018-11-02T19:02:44.629Z,132.63
2018-11-02T19:05:16.223Z,114.60
2018-11-02T19:07:45.698Z,118.33
2018-11-02T19:10:14.905Z,119.30
2018-11-02T19:12:44.635Z,116.37
2018-11-02T19:15:19.018Z,103.30
2018-11-02T19:17:48.692Z,115.60
2018-11-02T19:20:17.981Z,107.37
2018-11-02T19:22:47.330Z,100.00
2018-11-02T19:25:18.241Z,99.63
2018-11-02T19:27:47.653Z,97.57
2018-11-02T19:30:17.441Z,106.70
2018-11-02T19:32:46.716Z,111.47
2018-11-02T19:35:16.513Z,100.13
2018-11-02T19:37:45.833Z,103.70
2018-11-02T19:40:16.114Z,98.30
2018-11-02T19:42:45.503Z,102.00
2018-11-02T19:45:15.038Z,98.10
2018-11-02T19:47:49.389Z,81.07
2018-11-02T19:50:19.477Z,88.53
2018-11-02T19:52:48.869Z,84.60
2018-11-02T19:55:18.112Z,79.93
2018-11-02T19:57:47.894Z,73.50
2018-11-02T20:00:17.685Z,79.87
2018-11-02T20:02:46.896Z,78.43
2018-11-02T20:05:17.683Z,74.43
2018-11-02T20:07:46.953Z,79.73
2018-11-02T20:10:17.294Z,68.93
2018-11-02T20:12:47.013Z,84.13
2018-11-02T20:15:17.109Z,81.97
2018-11-02T20:17:46.549Z,80.43
2018-11-02T20:20:17.241Z,90.27
2018-11-02T20:22:46.577Z,106.73
2018-11-02T20:25:17.370Z,93.30
2018-11-02T20:27:46.769Z,107.93
2018-11-02T20:30:20.569Z,110.87
2018-11-02T20:32:51.987Z,131.87
2018-11-02T20:35:21.463Z,114.30
2018-11-02T20:37:50.807Z,105.77
2018-11-02T20:40:20.395Z,93.10
2018-11-02T20:42:49.948Z,97.63
2018-11-02T20:45:19.307Z,94.90
2018-11-02T20:47:50.638Z,101.73
2018-11-02T20:50:19.959Z,95.23
2018-11-02T20:52:49.648Z,102.03
2018-11-02T20:55:19.216Z,88.97
2018-11-02T20:57:48.613Z,91.13
2018-11-02T21:00:19.373Z,78.60
2018-11-02T21:02:48.743Z,81.03
2018-11-02T21:05:19.244Z,73.90
2018-11-02T21:07:48.939Z,72.07
2018-11-02T21:10:19.695Z,69.80
2018-11-02T21:12:49.014Z,69.03
2018-11-02T21:15:19.678Z,61.93
2018-11-02T21:17:49.474Z,62.43
2018-11-02T21:20:20.065Z,68.73
2018-11-02T21:22:49.545Z,73.83
2018-11-02T21:25:18.819Z,61.50
2018-11-02T21:27:48.684Z,65.50
2018-11-02T21:30:20.071Z,66.50
2018-11-02T21:32:49.826Z,67.80
2018-11-02T21:35:19.606Z,65.13
2018-11-02T21:37:49.492Z,57.13
2018-11-02T21:40:20.999Z,59.80
2018-11-02T21:42:50.514Z,66.57
2018-11-02T21:45:20.881Z,69.73
2018-11-02T21:47:50.400Z,72.60
2018-11-02T21:50:19.673Z,71.17
2018-11-02T21:52:49.627Z,65.57
2018-11-02T21:55:18.773Z,70.00
2018-11-02T21:57:47.910Z,71.70
2018-11-02T22:00:20.487Z,75.13
2018-11-02T22:02:49.874Z,65.23
2018-11-02T22:05:19.175Z,66.03
2018-11-02T22:07:49.679Z,61.30
2018-11-02T22:10:20.164Z,64.63
2018-11-02T22:12:50.401Z,66.63
2018-11-02T22:15:19.671Z,73.33
2018-11-02T22:17:48.861Z,68.10
2018-11-02T22:20:18.391Z,62.17
2018-11-02T22:22:47.687Z,69.67
2018-11-02T22:25:17.753Z,71.20
2018-11-02T22:27:47.214Z,62.07
2018-11-02T22:30:17.449Z,84.27
2018-11-02T22:32:47.283Z,127.90
2018-11-02T22:35:16.654Z,105.63
2018-11-02T22:37:46.349Z,110.53
2018-11-02T22:40:16.168Z,101.03
2018-11-02T22:42:45.343Z,94.47
2018-11-02T22:45:15.585Z,96.83
2018-11-02T22:47:50.198Z,92.13
2018-11-02T22:50:19.471Z,108.47
2018-11-02T22:52:48.574Z,86.23
2018-11-02T22:55:17.932Z,84.63
2018-11-02T22:57:47.102Z,87.83
2018-11-02T23:00:18.771Z,81.50
2018-11-02T23:02:48.825Z,87.23
2018-11-02T23:05:18.083Z,77.97
2018-11-02T23:07:47.376Z,84.53
2018-11-02T23:10:16.546Z,90.40
2018-11-02T23:12:45.853Z,87.27
2018-11-02T23:15:15.227Z,91.57
2018-11-02T23:17:44.334Z,78.87
2018-11-02T23:20:14.675Z,81.77
2018-11-02T23:22:44.202Z,83.90
2018-11-02T23:26:43.070Z,79.77
2018-11-02T23:29:12.461Z,75.63
2018-11-02T23:31:41.870Z,81.77
2018-11-02T23:34:11.234Z,83.23
2018-11-02T23:36:40.345Z,83.87
2018-11-02T23:39:09.662Z,87.33
2018-11-02T23:41:38.953Z,76.60
2018-11-02T23:44:08.667Z,75.23
2018-11-02T23:46:37.980Z,65.10
2018-11-02T23:49:07.259Z,72.33
2018-11-02T23:51:36.498Z,62.57
2018-11-02T23:54:05.904Z,67.50
2018-11-02T23:56:35.182Z,66.90
2018-11-02T23:59:04.362Z,58.80
